sensor_id;sensor_type;location;lat;lon;timestamp;temperature;humidity
27978;DHT22;15314;49.248;6.968;2023-02-12T00:00:27;7.70;97.20
27978;DHT22;15314;49.248;6.968;2023-02-12T00:01:27;7.70;97.20
27978;DHT22;15314;49.248;6.968;2023-02-12T00:02:28;7.70;97.20
27978;DHT22;15314;49.248;6.968;2023-02-12T00:03:29;7.70;97.20
27978;DHT22;15314;49.248;6.968;2023-02-12T00:04:29;7.80;97.00
27978;DHT22;15314;49.248;6.968;2023-02-12T00:05:30;7.80;97.00
27978;DHT22;15314;49.248;6.968;2023-02-12T00:06:31;7.80;96.90
27978;DHT22;15314;49.248;6.968;2023-02-12T00:07:32;7.80;96.90
27978;DHT22;15314;49.248;6.968;2023-02-12T00:08:33;7.80;96.90
27978;DHT22;15314;49.248;6.968;2023-02-12T00:09:34;7.80;97.00
27978;DHT22;15314;49.248;6.968;2023-02-12T00:10:34;7.80;97.00
27978;DHT22;15314;49.248;6.968;2023-02-12T00:11:39;7.80;97.20
27978;DHT22;15314;49.248;6.968;2023-02-12T00:12:39;7.70;97.10
27978;DHT22;15314;49.248;6.968;2023-02-12T00:13:40;7.80;97.20
27978;DHT22;15314;49.248;6.968;2023-02-12T00:14:41;7.80;97.10
27978;DHT22;15314;49.248;6.968;2023-02-12T00:15:42;7.80;97.10
27978;DHT22;15314;49.248;6.968;2023-02-12T00:16:43;7.80;96.90
27978;DHT22;15314;49.248;6.968;2023-02-12T00:17:44;7.90;97.00
27978;DHT22;15314;49.248;6.968;2023-02-12T00:18:45;7.90;96.80
27978;DHT22;15314;49.248;6.968;2023-02-12T00:19:46;7.90;96.90
27978;DHT22;15314;49.248;6.968;2023-02-12T00:20:47;7.90;97.00
27978;DHT22;15314;49.248;6.968;2023-02-12T00:21:48;7.90;97.00
27978;DHT22;15314;49.248;6.968;2023-02-12T00:22:48;7.90;97.00
27978;DHT22;15314;49.248;6.968;2023-02-12T00:23:49;7.90;96.80
27978;DHT22;15314;49.248;6.968;2023-02-12T00:24:50;8.00;96.80
27978;DHT22;15314;49.248;6.968;2023-02-12T00:25:50;7.90;96.70
27978;DHT22;15314;49.248;6.968;2023-02-12T00:26:51;7.90;96.70
27978;DHT22;15314;49.248;6.968;2023-02-12T00:27:51;7.90;96.80
27978;DHT22;15314;49.248;6.968;2023-02-12T00:28:53;7.90;97.00
27978;DHT22;15314;49.248;6.968;2023-02-12T00:29:53;7.80;97.00
27978;DHT22;15314;49.248;6.968;2023-02-12T00:30:54;7.80;97.00
27978;DHT22;15314;49.248;6.968;2023-02-12T00:31:54;7.80;97.20
27978;DHT22;15314;49.248;6.968;2023-02-12T00:32:55;7.80;97.30
27978;DHT22;15314;49.248;6.968;2023-02-12T00:33:56;7.80;97.30
27978;DHT22;15314;49.248;6.968;2023-02-12T00:34:58;7.70;97.60
27978;DHT22;15314;49.248;6.968;2023-02-12T00:35:59;7.70;97.60
27978;DHT22;15314;49.248;6.968;2023-02-12T00:36:59;7.60;97.80
27978;DHT22;15314;49.248;6.968;2023-02-12T00:38:00;7.60;97.90
27978;DHT22;15314;49.248;6.968;2023-02-12T00:39:01;7.50;98.00
27978;DHT22;15314;49.248;6.968;2023-02-12T00:40:01;7.50;98.10
27978;DHT22;15314;49.248;6.968;2023-02-12T00:41:02;7.50;98.10
27978;DHT22;15314;49.248;6.968;2023-02-12T00:42:04;7.50;98.10
27978;DHT22;15314;49.248;6.968;2023-02-12T00:43:04;7.50;98.20
27978;DHT22;15314;49.248;6.968;2023-02-12T00:44:05;7.40;98.40
27978;DHT22;15314;49.248;6.968;2023-02-12T00:45:06;7.40;98.50
27978;DHT22;15314;49.248;6.968;2023-02-12T00:46:07;7.40;98.50
27978;DHT22;15314;49.248;6.968;2023-02-12T00:47:08;7.40;98.50
27978;DHT22;15314;49.248;6.968;2023-02-12T00:48:08;7.40;98.60
27978;DHT22;15314;49.248;6.968;2023-02-12T00:49:09;7.30;98.70
27978;DHT22;15314;49.248;6.968;2023-02-12T00:50:10;7.30;98.80
27978;DHT22;15314;49.248;6.968;2023-02-12T00:51:11;7.30;98.80
27978;DHT22;15314;49.248;6.968;2023-02-12T00:52:15;7.30;98.80
27978;DHT22;15314;49.248;6.968;2023-02-12T00:53:16;7.30;99.00
27978;DHT22;15314;49.248;6.968;2023-02-12T00:54:17;7.30;98.80
27978;DHT22;15314;49.248;6.968;2023-02-12T00:55:17;7.30;98.70
27978;DHT22;15314;49.248;6.968;2023-02-12T00:56:18;7.30;98.80
27978;DHT22;15314;49.248;6.968;2023-02-12T00:57:19;7.30;98.80
27978;DHT22;15314;49.248;6.968;2023-02-12T00:58:20;7.30;98.70
27978;DHT22;15314;49.248;6.968;2023-02-12T00:59:22;7.50;98.60
27978;DHT22;15314;49.248;6.968;2023-02-12T01:00:22;7.40;98.40
27978;DHT22;15314;49.248;6.968;2023-02-12T01:01:23;7.50;98.40
27978;DHT22;15314;49.248;6.968;2023-02-12T01:02:24;7.40;98.40
27978;DHT22;15314;49.248;6.968;2023-02-12T01:03:25;7.40;98.40
27978;DHT22;15314;49.248;6.968;2023-02-12T01:04:25;7.40;98.50
27978;DHT22;15314;49.248;6.968;2023-02-12T01:05:26;7.40;98.60
27978;DHT22;15314;49.248;6.968;2023-02-12T01:06:27;7.30;98.70
27978;DHT22;15314;49.248;6.968;2023-02-12T01:07:27;7.30;98.80
27978;DHT22;15314;49.248;6.968;2023-02-12T01:08:28;7.30;98.80
27978;DHT22;15314;49.248;6.968;2023-02-12T01:09:29;7.40;98.80
27978;DHT22;15314;49.248;6.968;2023-02-12T01:10:30;7.40;98.50
27978;DHT22;15314;49.248;6.968;2023-02-12T01:11:31;7.40;98.30
27978;DHT22;15314;49.248;6.968;2023-02-12T01:12:32;7.40;98.30
27978;DHT22;15314;49.248;6.968;2023-02-12T01:13:33;7.40;98.40
27978;DHT22;15314;49.248;6.968;2023-02-12T01:14:34;7.40;98.50
27978;DHT22;15314;49.248;6.968;2023-02-12T01:15:34;7.30;98.60
27978;DHT22;15314;49.248;6.968;2023-02-12T01:16:35;7.30;98.70
27978;DHT22;15314;49.248;6.968;2023-02-12T01:17:36;7.30;98.60
27978;DHT22;15314;49.248;6.968;2023-02-12T01:18:37;7.30;98.70
27978;DHT22;15314;49.248;6.968;2023-02-12T01:19:38;7.40;98.60
27978;DHT22;15314;49.248;6.968;2023-02-12T01:20:39;7.30;98.60
27978;DHT22;15314;49.248;6.968;2023-02-12T01:21:39;7.30;98.50
27978;DHT22;15314;49.248;6.968;2023-02-12T01:22:40;7.40;98.30
27978;DHT22;15314;49.248;6.968;2023-02-12T01:23:41;7.40;98.30
27978;DHT22;15314;49.248;6.968;2023-02-12T01:24:42;7.40;98.20
27978;DHT22;15314;49.248;6.968;2023-02-12T01:25:43;7.40;98.20
27978;DHT22;15314;49.248;6.968;2023-02-12T01:26:43;7.40;98.30
27978;DHT22;15314;49.248;6.968;2023-02-12T01:27:44;7.40;98.20
27978;DHT22;15314;49.248;6.968;2023-02-12T01:28:49;7.40;98.10
27978;DHT22;15314;49.248;6.968;2023-02-12T01:29:50;7.40;98.30
27978;DHT22;15314;49.248;6.968;2023-02-12T01:30:50;7.40;98.30
27978;DHT22;15314;49.248;6.968;2023-02-12T01:31:51;7.40;98.20
27978;DHT22;15314;49.248;6.968;2023-02-12T01:32:51;7.40;98.30
27978;DHT22;15314;49.248;6.968;2023-02-12T01:33:55;7.30;98.50
27978;DHT22;15314;49.248;6.968;2023-02-12T01:34:56;7.30;98.60
27978;DHT22;15314;49.248;6.968;2023-02-12T01:35:56;7.30;98.60
27978;DHT22;15314;49.248;6.968;2023-02-12T01:36:57;7.30;98.40
27978;DHT22;15314;49.248;6.968;2023-02-12T01:37:58;7.40;98.30
27978;DHT22;15314;49.248;6.968;2023-02-12T01:38:59;7.40;98.20
27978;DHT22;15314;49.248;6.968;2023-02-12T01:40:02;7.40;98.30
27978;DHT22;15314;49.248;6.968;2023-02-12T01:41:09;7.30;98.50
27978;DHT22;15314;49.248;6.968;2023-02-12T01:42:12;7.30;98.80
27978;DHT22;15314;49.248;6.968;2023-02-12T01:43:13;7.20;99.10
27978;DHT22;15314;49.248;6.968;2023-02-12T01:44:19;7.20;99.10
27978;DHT22;15314;49.248;6.968;2023-02-12T01:46:41;7.20;98.90
27978;DHT22;15314;49.248;6.968;2023-02-12T01:47:44;7.30;99.10
27978;DHT22;15314;49.248;6.968;2023-02-12T01:48:47;7.20;99.30
27978;DHT22;15314;49.248;6.968;2023-02-12T01:49:48;7.20;99.20
27978;DHT22;15314;49.248;6.968;2023-02-12T01:50:50;7.20;99.10
27978;DHT22;15314;49.248;6.968;2023-02-12T01:51:57;7.20;99.10
27978;DHT22;15314;49.248;6.968;2023-02-12T01:52:58;7.20;99.10
27978;DHT22;15314;49.248;6.968;2023-02-12T01:54:02;7.20;99.30
27978;DHT22;15314;49.248;6.968;2023-02-12T01:55:07;7.20;99.30
27978;DHT22;15314;49.248;6.968;2023-02-12T01:56:09;7.20;99.10
27978;DHT22;15314;49.248;6.968;2023-02-12T01:57:11;7.20;99.00
27978;DHT22;15314;49.248;6.968;2023-02-12T01:58:13;7.30;98.90
27978;DHT22;15314;49.248;6.968;2023-02-12T01:59:16;7.30;98.70
27978;DHT22;15314;49.248;6.968;2023-02-12T02:00:20;7.30;98.80
27978;DHT22;15314;49.248;6.968;2023-02-12T02:01:26;7.30;98.70
27978;DHT22;15314;49.248;6.968;2023-02-12T02:02:28;7.30;98.70
27978;DHT22;15314;49.248;6.968;2023-02-12T02:03:33;7.30;98.60
27978;DHT22;15314;49.248;6.968;2023-02-12T02:04:43;7.30;98.70
27978;DHT22;15314;49.248;6.968;2023-02-12T02:05:53;7.30;98.80
27978;DHT22;15314;49.248;6.968;2023-02-12T02:07:02;7.20;98.90
27978;DHT22;15314;49.248;6.968;2023-02-12T02:08:03;7.30;98.70
27978;DHT22;15314;49.248;6.968;2023-02-12T02:09:05;7.20;98.60
27978;DHT22;15314;49.248;6.968;2023-02-12T02:10:06;7.20;98.80
27978;DHT22;15314;49.248;6.968;2023-02-12T02:11:07;7.30;98.80
27978;DHT22;15314;49.248;6.968;2023-02-12T02:12:27;7.30;98.60
27978;DHT22;15314;49.248;6.968;2023-02-12T02:13:47;7.30;98.60
27978;DHT22;15314;49.248;6.968;2023-02-12T02:15:07;7.20;98.80
27978;DHT22;15314;49.248;6.968;2023-02-12T02:16:22;7.10;98.90
27978;DHT22;15314;49.248;6.968;2023-02-12T02:17:30;7.20;98.90
27978;DHT22;15314;49.248;6.968;2023-02-12T02:20:15;7.30;98.70
27978;DHT22;15314;49.248;6.968;2023-02-12T02:26:49;7.30;98.70
27978;DHT22;15314;49.248;6.968;2023-02-12T02:28:12;7.20;98.90
27978;DHT22;15314;49.248;6.968;2023-02-12T02:29:38;7.20;98.90
27978;DHT22;15314;49.248;6.968;2023-02-12T02:31:12;7.20;98.80
27978;DHT22;15314;49.248;6.968;2023-02-12T02:36:50;7.20;98.80
27978;DHT22;15314;49.248;6.968;2023-02-12T02:40:45;7.20;99.00
27978;DHT22;15314;49.248;6.968;2023-02-12T02:41:56;7.20;98.90
27978;DHT22;15314;49.248;6.968;2023-02-12T02:43:03;7.20;98.90
27978;DHT22;15314;49.248;6.968;2023-02-12T02:44:14;7.20;99.00
27978;DHT22;15314;49.248;6.968;2023-02-12T02:45:31;7.20;99.10
27978;DHT22;15314;49.248;6.968;2023-02-12T02:46:47;7.10;99.00
27978;DHT22;15314;49.248;6.968;2023-02-12T02:48:47;7.10;99.30
27978;DHT22;15314;49.248;6.968;2023-02-12T02:49:30;7.10;99.20
27978;DHT22;15314;49.248;6.968;2023-02-12T02:50:34;7.10;99.10
27978;DHT22;15314;49.248;6.968;2023-02-12T02:51:40;7.20;99.10
27978;DHT22;15314;49.248;6.968;2023-02-12T02:53:07;7.20;98.90
27978;DHT22;15314;49.248;6.968;2023-02-12T02:54:16;7.20;98.70
27978;DHT22;15314;49.248;6.968;2023-02-12T02:55:20;7.30;98.70
27978;DHT22;15314;49.248;6.968;2023-02-12T02:56:23;7.40;99.00
27978;DHT22;15314;49.248;6.968;2023-02-12T02:57:50;7.20;99.00
27978;DHT22;15314;49.248;6.968;2023-02-12T02:58:57;7.10;99.20
27978;DHT22;15314;49.248;6.968;2023-02-12T03:01:57;7.00;99.60
27978;DHT22;15314;49.248;6.968;2023-02-12T03:03:05;6.90;99.90
27978;DHT22;15314;49.248;6.968;2023-02-12T03:04:11;6.90;99.90
27978;DHT22;15314;49.248;6.968;2023-02-12T03:05:26;7.00;99.80
27978;DHT22;15314;49.248;6.968;2023-02-12T03:06:45;7.00;99.70
27978;DHT22;15314;49.248;6.968;2023-02-12T03:07:56;7.10;99.40
27978;DHT22;15314;49.248;6.968;2023-02-12T03:09:08;7.10;99.50
27978;DHT22;15314;49.248;6.968;2023-02-12T03:10:15;7.10;99.40
27978;DHT22;15314;49.248;6.968;2023-02-12T03:11:25;7.10;99.30
27978;DHT22;15314;49.248;6.968;2023-02-12T03:12:37;7.10;99.20
27978;DHT22;15314;49.248;6.968;2023-02-12T03:13:50;7.10;99.40
27978;DHT22;15314;49.248;6.968;2023-02-12T03:15:06;7.10;99.60
27978;DHT22;15314;49.248;6.968;2023-02-12T03:16:14;7.00;99.60
27978;DHT22;15314;49.248;6.968;2023-02-12T03:17:38;7.00;99.60
27978;DHT22;15314;49.248;6.968;2023-02-12T03:18:49;7.10;99.50
27978;DHT22;15314;49.248;6.968;2023-02-12T03:20:13;7.10;99.90
27978;DHT22;15314;49.248;6.968;2023-02-12T03:21:21;7.10;99.60
27978;DHT22;15314;49.248;6.968;2023-02-12T03:22:35;7.10;99.60
27978;DHT22;15314;49.248;6.968;2023-02-12T03:23:41;7.10;99.50
27978;DHT22;15314;49.248;6.968;2023-02-12T03:24:49;7.10;99.40
27978;DHT22;15314;49.248;6.968;2023-02-12T03:26:15;7.20;99.20
27978;DHT22;15314;49.248;6.968;2023-02-12T03:28:30;7.20;99.30
27978;DHT22;15314;49.248;6.968;2023-02-12T03:29:31;7.30;99.00
27978;DHT22;15314;49.248;6.968;2023-02-12T03:35:15;7.30;98.80
27978;DHT22;15314;49.248;6.968;2023-02-12T03:36:54;7.40;98.70
27978;DHT22;15314;49.248;6.968;2023-02-12T03:39:45;7.30;98.70
27978;DHT22;15314;49.248;6.968;2023-02-12T03:40:55;7.30;98.80
27978;DHT22;15314;49.248;6.968;2023-02-12T03:42:21;7.30;98.90
27978;DHT22;15314;49.248;6.968;2023-02-12T03:44:51;7.20;99.10
27978;DHT22;15314;49.248;6.968;2023-02-12T03:46:07;7.20;99.10
27978;DHT22;15314;49.248;6.968;2023-02-12T03:47:21;7.20;98.90
27978;DHT22;15314;49.248;6.968;2023-02-12T03:48:32;7.30;98.90
27978;DHT22;15314;49.248;6.968;2023-02-12T03:49:47;7.30;98.70
27978;DHT22;15314;49.248;6.968;2023-02-12T03:51:19;7.30;98.70
27978;DHT22;15314;49.248;6.968;2023-02-12T03:52:23;7.40;98.60
27978;DHT22;15314;49.248;6.968;2023-02-12T03:53:25;7.30;98.70
27978;DHT22;15314;49.248;6.968;2023-02-12T03:54:26;7.40;98.70
27978;DHT22;15314;49.248;6.968;2023-02-12T03:55:27;7.40;98.70
27978;DHT22;15314;49.248;6.968;2023-02-12T03:56:49;7.30;98.80
27978;DHT22;15314;49.248;6.968;2023-02-12T03:57:56;7.20;98.90
27978;DHT22;15314;49.248;6.968;2023-02-12T03:58:59;7.30;98.90
27978;DHT22;15314;49.248;6.968;2023-02-12T04:00:04;7.30;98.80
27978;DHT22;15314;49.248;6.968;2023-02-12T04:01:06;7.30;98.80
27978;DHT22;15314;49.248;6.968;2023-02-12T04:02:07;7.40;99.00
27978;DHT22;15314;49.248;6.968;2023-02-12T04:03:08;7.20;98.90
27978;DHT22;15314;49.248;6.968;2023-02-12T04:04:09;7.30;98.90
27978;DHT22;15314;49.248;6.968;2023-02-12T04:05:21;7.30;98.80
27978;DHT22;15314;49.248;6.968;2023-02-12T04:06:25;7.20;98.90
27978;DHT22;15314;49.248;6.968;2023-02-12T04:07:25;7.30;98.80
27978;DHT22;15314;49.248;6.968;2023-02-12T04:08:27;7.30;98.90
27978;DHT22;15314;49.248;6.968;2023-02-12T04:09:28;7.30;98.80
27978;DHT22;15314;49.248;6.968;2023-02-12T04:10:37;7.30;98.90
27978;DHT22;15314;49.248;6.968;2023-02-12T04:12:20;7.30;99.00
27978;DHT22;15314;49.248;6.968;2023-02-12T04:13:38;7.30;98.80
27978;DHT22;15314;49.248;6.968;2023-02-12T04:16:16;7.30;99.10
27978;DHT22;15314;49.248;6.968;2023-02-12T04:18:43;7.30;99.00
27978;DHT22;15314;49.248;6.968;2023-02-12T04:20:13;7.40;98.70
27978;DHT22;15314;49.248;6.968;2023-02-12T04:27:29;7.50;98.50
27978;DHT22;15314;49.248;6.968;2023-02-12T04:30:03;7.40;98.70
27978;DHT22;15314;49.248;6.968;2023-02-12T04:31:12;7.30;98.90
27978;DHT22;15314;49.248;6.968;2023-02-12T04:32:23;7.30;98.80
27978;DHT22;15314;49.248;6.968;2023-02-12T04:33:27;7.50;98.90
27978;DHT22;15314;49.248;6.968;2023-02-12T04:35:50;7.30;98.70
27978;DHT22;15314;49.248;6.968;2023-02-12T04:37:03;7.30;98.70
27978;DHT22;15314;49.248;6.968;2023-02-12T04:39:10;7.50;98.50
27978;DHT22;15314;49.248;6.968;2023-02-12T04:40:14;7.50;98.40
27978;DHT22;15314;49.248;6.968;2023-02-12T04:41:16;7.50;98.30
27978;DHT22;15314;49.248;6.968;2023-02-12T04:42:16;7.50;98.40
27978;DHT22;15314;49.248;6.968;2023-02-12T04:43:32;7.50;98.60
27978;DHT22;15314;49.248;6.968;2023-02-12T04:44:40;7.40;98.90
27978;DHT22;15314;49.248;6.968;2023-02-12T04:45:41;7.40;99.00
27978;DHT22;15314;49.248;6.968;2023-02-12T04:46:43;7.30;98.90
27978;DHT22;15314;49.248;6.968;2023-02-12T04:47:43;7.30;99.10
27978;DHT22;15314;49.248;6.968;2023-02-12T04:48:55;7.30;99.10
27978;DHT22;15314;49.248;6.968;2023-02-12T04:49:57;7.30;99.20
27978;DHT22;15314;49.248;6.968;2023-02-12T04:50:57;7.30;99.10
27978;DHT22;15314;49.248;6.968;2023-02-12T04:51:58;7.20;99.10
27978;DHT22;15314;49.248;6.968;2023-02-12T04:52:59;7.30;99.30
27978;DHT22;15314;49.248;6.968;2023-02-12T04:53:59;7.20;99.30
27978;DHT22;15314;49.248;6.968;2023-02-12T04:55:00;7.30;99.30
27978;DHT22;15314;49.248;6.968;2023-02-12T04:56:00;7.30;99.40
27978;DHT22;15314;49.248;6.968;2023-02-12T04:57:01;7.20;99.50
27978;DHT22;15314;49.248;6.968;2023-02-12T04:58:02;7.20;99.50
27978;DHT22;15314;49.248;6.968;2023-02-12T04:59:03;7.20;99.50
27978;DHT22;15314;49.248;6.968;2023-02-12T05:00:05;7.20;99.50
27978;DHT22;15314;49.248;6.968;2023-02-12T05:01:06;7.20;99.50
27978;DHT22;15314;49.248;6.968;2023-02-12T05:02:08;7.20;99.40
27978;DHT22;15314;49.248;6.968;2023-02-12T05:03:08;7.20;99.40
27978;DHT22;15314;49.248;6.968;2023-02-12T05:04:11;7.40;99.50
27978;DHT22;15314;49.248;6.968;2023-02-12T05:05:13;7.20;99.60
27978;DHT22;15314;49.248;6.968;2023-02-12T05:06:13;7.20;99.70
27978;DHT22;15314;49.248;6.968;2023-02-12T05:07:14;7.20;99.70
27978;DHT22;15314;49.248;6.968;2023-02-12T05:08:15;7.20;99.50
27978;DHT22;15314;49.248;6.968;2023-02-12T05:09:18;7.20;99.70
27978;DHT22;15314;49.248;6.968;2023-02-12T05:10:19;7.20;99.70
27978;DHT22;15314;49.248;6.968;2023-02-12T05:11:19;7.20;99.70
27978;DHT22;15314;49.248;6.968;2023-02-12T05:12:20;7.20;99.90
27978;DHT22;15314;49.248;6.968;2023-02-12T05:13:21;7.20;99.90
27978;DHT22;15314;49.248;6.968;2023-02-12T05:14:24;7.10;99.90
27978;DHT22;15314;49.248;6.968;2023-02-12T05:15:24;7.20;99.80
27978;DHT22;15314;49.248;6.968;2023-02-12T05:16:25;7.10;99.80
27978;DHT22;15314;49.248;6.968;2023-02-12T05:17:26;7.20;99.80
27978;DHT22;15314;49.248;6.968;2023-02-12T05:18:27;7.20;99.90
27978;DHT22;15314;49.248;6.968;2023-02-12T05:19:27;7.20;99.80
27978;DHT22;15314;49.248;6.968;2023-02-12T05:20:28;7.20;99.80
27978;DHT22;15314;49.248;6.968;2023-02-12T05:21:29;7.20;99.90
27978;DHT22;15314;49.248;6.968;2023-02-12T05:22:29;7.20;99.80
27978;DHT22;15314;49.248;6.968;2023-02-12T05:23:33;7.30;99.60
27978;DHT22;15314;49.248;6.968;2023-02-12T05:24:34;7.20;99.40
27978;DHT22;15314;49.248;6.968;2023-02-12T05:25:34;7.30;99.20
27978;DHT22;15314;49.248;6.968;2023-02-12T05:26:35;7.30;99.10
27978;DHT22;15314;49.248;6.968;2023-02-12T05:27:36;7.40;99.40
27978;DHT22;15314;49.248;6.968;2023-02-12T05:28:37;7.30;99.40
27978;DHT22;15314;49.248;6.968;2023-02-12T05:29:37;7.30;99.40
27978;DHT22;15314;49.248;6.968;2023-02-12T05:30:38;7.30;99.20
27978;DHT22;15314;49.248;6.968;2023-02-12T05:31:39;7.40;99.10
27978;DHT22;15314;49.248;6.968;2023-02-12T05:32:39;7.40;99.10
27978;DHT22;15314;49.248;6.968;2023-02-12T05:33:44;7.40;99.10
27978;DHT22;15314;49.248;6.968;2023-02-12T05:34:45;7.40;99.10
27978;DHT22;15314;49.248;6.968;2023-02-12T05:35:46;7.40;99.10
27978;DHT22;15314;49.248;6.968;2023-02-12T05:36:46;7.40;99.10
27978;DHT22;15314;49.248;6.968;2023-02-12T05:37:47;7.40;99.10
27978;DHT22;15314;49.248;6.968;2023-02-12T05:38:51;7.40;99.10
27978;DHT22;15314;49.248;6.968;2023-02-12T05:39:51;7.40;99.10
27978;DHT22;15314;49.248;6.968;2023-02-12T05:40:53;7.40;99.20
27978;DHT22;15314;49.248;6.968;2023-02-12T05:41:54;7.40;98.90
27978;DHT22;15314;49.248;6.968;2023-02-12T05:42:54;7.40;99.00
27978;DHT22;15314;49.248;6.968;2023-02-12T05:43:55;7.50;98.90
27978;DHT22;15314;49.248;6.968;2023-02-12T05:44:55;7.50;98.80
27978;DHT22;15314;49.248;6.968;2023-02-12T05:46:01;7.50;98.90
27978;DHT22;15314;49.248;6.968;2023-02-12T05:47:01;7.50;98.60
27978;DHT22;15314;49.248;6.968;2023-02-12T05:48:02;7.50;98.60
27978;DHT22;15314;49.248;6.968;2023-02-12T05:49:04;7.50;98.90
27978;DHT22;15314;49.248;6.968;2023-02-12T05:50:05;7.50;98.80
27978;DHT22;15314;49.248;6.968;2023-02-12T05:51:17;7.50;98.80
27978;DHT22;15314;49.248;6.968;2023-02-12T05:52:19;7.50;98.60
27978;DHT22;15314;49.248;6.968;2023-02-12T05:53:20;7.50;98.60
27978;DHT22;15314;49.248;6.968;2023-02-12T05:54:20;7.50;98.70
27978;DHT22;15314;49.248;6.968;2023-02-12T05:55:21;7.50;98.60
27978;DHT22;15314;49.248;6.968;2023-02-12T05:56:24;7.50;98.50
27978;DHT22;15314;49.248;6.968;2023-02-12T05:57:25;7.60;98.50
27978;DHT22;15314;49.248;6.968;2023-02-12T05:58:25;7.50;98.40
27978;DHT22;15314;49.248;6.968;2023-02-12T05:59:26;7.60;98.50
27978;DHT22;15314;49.248;6.968;2023-02-12T06:00:26;7.60;98.30
27978;DHT22;15314;49.248;6.968;2023-02-12T06:01:30;7.70;98.40
27978;DHT22;15314;49.248;6.968;2023-02-12T06:02:33;7.60;98.40
27978;DHT22;15314;49.248;6.968;2023-02-12T06:03:33;7.60;98.40
27978;DHT22;15314;49.248;6.968;2023-02-12T06:04:34;7.60;98.40
27978;DHT22;15314;49.248;6.968;2023-02-12T06:05:34;7.60;98.50
27978;DHT22;15314;49.248;6.968;2023-02-12T06:06:35;7.70;98.60
27978;DHT22;15314;49.248;6.968;2023-02-12T06:07:36;7.60;98.50
27978;DHT22;15314;49.248;6.968;2023-02-12T06:08:37;7.60;98.60
27978;DHT22;15314;49.248;6.968;2023-02-12T06:09:37;7.50;98.60
27978;DHT22;15314;49.248;6.968;2023-02-12T06:10:38;7.60;98.40
27978;DHT22;15314;49.248;6.968;2023-02-12T06:11:39;7.60;98.40
27978;DHT22;15314;49.248;6.968;2023-02-12T06:12:40;7.60;98.50
27978;DHT22;15314;49.248;6.968;2023-02-12T06:13:40;7.70;98.50
27978;DHT22;15314;49.248;6.968;2023-02-12T06:14:41;7.60;98.50
27978;DHT22;15314;49.248;6.968;2023-02-12T06:15:43;7.60;98.60
27978;DHT22;15314;49.248;6.968;2023-02-12T06:16:48;7.70;98.70
27978;DHT22;15314;49.248;6.968;2023-02-12T06:17:49;7.50;98.80
27978;DHT22;15314;49.248;6.968;2023-02-12T06:18:51;7.50;98.60
27978;DHT22;15314;49.248;6.968;2023-02-12T06:19:51;7.60;98.60
27978;DHT22;15314;49.248;6.968;2023-02-12T06:20:52;7.60;98.60
27978;DHT22;15314;49.248;6.968;2023-02-12T06:21:56;7.60;98.70
27978;DHT22;15314;49.248;6.968;2023-02-12T06:22:56;7.60;98.50
27978;DHT22;15314;49.248;6.968;2023-02-12T06:23:57;7.60;98.60
27978;DHT22;15314;49.248;6.968;2023-02-12T06:24:58;7.60;98.50
27978;DHT22;15314;49.248;6.968;2023-02-12T06:25:58;7.60;98.60
27978;DHT22;15314;49.248;6.968;2023-02-12T06:26:59;7.60;98.50
27978;DHT22;15314;49.248;6.968;2023-02-12T06:28:00;7.70;98.50
27978;DHT22;15314;49.248;6.968;2023-02-12T06:29:00;7.60;98.50
27978;DHT22;15314;49.248;6.968;2023-02-12T06:30:01;7.70;98.50
27978;DHT22;15314;49.248;6.968;2023-02-12T06:31:02;7.70;98.30
27978;DHT22;15314;49.248;6.968;2023-02-12T06:32:03;7.70;98.40
27978;DHT22;15314;49.248;6.968;2023-02-12T06:33:04;7.70;98.50
27978;DHT22;15314;49.248;6.968;2023-02-12T06:34:06;7.70;98.40
27978;DHT22;15314;49.248;6.968;2023-02-12T06:35:07;7.70;98.30
27978;DHT22;15314;49.248;6.968;2023-02-12T06:36:08;7.70;98.40
27978;DHT22;15314;49.248;6.968;2023-02-12T06:37:12;7.60;98.50
27978;DHT22;15314;49.248;6.968;2023-02-12T06:38:13;7.60;98.40
27978;DHT22;15314;49.248;6.968;2023-02-12T06:39:15;7.60;98.60
27978;DHT22;15314;49.248;6.968;2023-02-12T06:40:16;7.70;98.70
27978;DHT22;15314;49.248;6.968;2023-02-12T06:41:17;7.60;98.60
27978;DHT22;15314;49.248;6.968;2023-02-12T06:42:21;7.60;98.60
27978;DHT22;15314;49.248;6.968;2023-02-12T06:43:22;7.60;98.90
27978;DHT22;15314;49.248;6.968;2023-02-12T06:44:23;7.60;98.60
27978;DHT22;15314;49.248;6.968;2023-02-12T06:45:23;7.60;98.60
27978;DHT22;15314;49.248;6.968;2023-02-12T06:46:25;7.60;98.60
27978;DHT22;15314;49.248;6.968;2023-02-12T06:47:26;7.60;98.60
27978;DHT22;15314;49.248;6.968;2023-02-12T06:48:27;7.60;98.60
27978;DHT22;15314;49.248;6.968;2023-02-12T06:49:28;7.60;98.70
27978;DHT22;15314;49.248;6.968;2023-02-12T06:50:29;7.60;98.80
27978;DHT22;15314;49.248;6.968;2023-02-12T06:51:32;7.50;98.90
27978;DHT22;15314;49.248;6.968;2023-02-12T06:52:33;7.50;98.90
27978;DHT22;15314;49.248;6.968;2023-02-12T06:53:34;7.60;98.90
27978;DHT22;15314;49.248;6.968;2023-02-12T06:54:35;7.60;98.80
27978;DHT22;15314;49.248;6.968;2023-02-12T06:55:36;7.60;98.80
27978;DHT22;15314;49.248;6.968;2023-02-12T06:56:37;7.60;98.80
27978;DHT22;15314;49.248;6.968;2023-02-12T06:57:37;7.60;98.80
27978;DHT22;15314;49.248;6.968;2023-02-12T06:58:40;7.50;99.00
27978;DHT22;15314;49.248;6.968;2023-02-12T06:59:41;7.60;98.90
27978;DHT22;15314;49.248;6.968;2023-02-12T07:00:42;7.60;98.90
27978;DHT22;15314;49.248;6.968;2023-02-12T07:01:43;7.60;98.80
27978;DHT22;15314;49.248;6.968;2023-02-12T07:02:44;7.60;98.80
27978;DHT22;15314;49.248;6.968;2023-02-12T07:03:49;7.60;98.70
27978;DHT22;15314;49.248;6.968;2023-02-12T07:04:50;7.60;98.90
27978;DHT22;15314;49.248;6.968;2023-02-12T07:05:51;7.50;98.90
27978;DHT22;15314;49.248;6.968;2023-02-12T07:06:52;7.60;99.00
27978;DHT22;15314;49.248;6.968;2023-02-12T07:07:52;7.50;98.90
27978;DHT22;15314;49.248;6.968;2023-02-12T07:08:54;7.60;99.00
27978;DHT22;15314;49.248;6.968;2023-02-12T07:09:54;7.60;99.10
27978;DHT22;15314;49.248;6.968;2023-02-12T07:10:55;7.60;99.10
27978;DHT22;15314;49.248;6.968;2023-02-12T07:11:57;7.60;99.20
27978;DHT22;15314;49.248;6.968;2023-02-12T07:12:58;7.50;99.20
27978;DHT22;15314;49.248;6.968;2023-02-12T07:13:59;7.60;99.30
27978;DHT22;15314;49.248;6.968;2023-02-12T07:14:59;7.50;99.40
27978;DHT22;15314;49.248;6.968;2023-02-12T07:16:05;7.50;99.50
27978;DHT22;15314;49.248;6.968;2023-02-12T07:17:06;7.40;99.50
27978;DHT22;15314;49.248;6.968;2023-02-12T07:18:08;7.40;99.70
27978;DHT22;15314;49.248;6.968;2023-02-12T07:19:12;7.50;99.70
27978;DHT22;15314;49.248;6.968;2023-02-12T07:20:13;7.50;99.80
27978;DHT22;15314;49.248;6.968;2023-02-12T07:21:15;7.50;99.60
27978;DHT22;15314;49.248;6.968;2023-02-12T07:22:16;7.50;99.80
27978;DHT22;15314;49.248;6.968;2023-02-12T07:23:16;7.50;99.70
27978;DHT22;15314;49.248;6.968;2023-02-12T07:24:17;7.50;99.70
27978;DHT22;15314;49.248;6.968;2023-02-12T07:25:17;7.40;99.60
27978;DHT22;15314;49.248;6.968;2023-02-12T07:26:19;7.50;99.60
27978;DHT22;15314;49.248;6.968;2023-02-12T07:27:20;7.50;99.50
27978;DHT22;15314;49.248;6.968;2023-02-12T07:28:21;7.60;99.40
27978;DHT22;15314;49.248;6.968;2023-02-12T07:29:21;7.60;99.30